createdAt,value
2018-07-02T00:00:29.535Z,56.86
2018-07-02T00:01:33.123Z,56.57
2018-07-02T00:02:36.582Z,56.99
2018-07-02T00:03:40.002Z,57.38
2018-07-02T00:04:43.546Z,57.21
2018-07-02T00:05:58.180Z,56.98
2018-07-02T00:07:11.988Z,57.12
2018-07-02T00:08:15.486Z,57.11
2018-07-02T00:09:18.936Z,56.49
2018-07-02T00:10:22.371Z,56.91
2018-07-02T00:11:25.812Z,56.69
2018-07-02T00:12:29.281Z,56.84
2018-07-02T00:13:32.709Z,56.74
2018-07-02T00:14:36.182Z,56.59
2018-07-02T00:15:39.635Z,57.29
2018-07-02T00:16:43.095Z,56.68
2018-07-02T00:17:46.733Z,57.56
2018-07-02T00:18:50.148Z,56.75
2018-07-02T00:19:53.671Z,57.60
2018-07-02T00:20:57.100Z,56.95
2018-07-02T00:22:00.535Z,57.26
2018-07-02T00:23:03.989Z,57.02
2018-07-02T00:24:07.492Z,57.09
2018-07-02T00:25:10.895Z,56.93
2018-07-02T00:26:14.343Z,57.28
2018-07-02T00:27:17.802Z,57.41
2018-07-02T00:28:21.217Z,56.69
2018-07-02T00:29:24.808Z,57.16
2018-07-02T00:30:28.220Z,56.88
2018-07-02T00:31:31.651Z,57.29
2018-07-02T00:32:35.105Z,57.08
2018-07-02T00:33:38.509Z,57.71
2018-07-02T00:34:41.991Z,57.13
2018-07-02T00:35:45.436Z,56.73
2018-07-02T00:36:48.899Z,57.18
2018-07-02T00:37:52.449Z,57.05
2018-07-02T00:38:55.906Z,57.03
2018-07-02T00:39:59.386Z,57.29
2018-07-02T00:41:02.816Z,57.16
2018-07-02T00:42:06.313Z,57.56
2018-07-02T00:43:09.756Z,57.53
2018-07-02T00:44:13.644Z,57.26
2018-07-02T00:45:17.079Z,57.02
2018-07-02T00:46:20.509Z,56.94
2018-07-02T00:47:23.928Z,56.92
2018-07-02T00:48:27.372Z,57.30
2018-07-02T00:49:30.812Z,56.86
2018-07-02T00:50:34.254Z,57.03
2018-07-02T00:51:38.022Z,57.58
2018-07-02T00:52:41.474Z,56.90
2018-07-02T00:53:44.920Z,56.95
2018-07-02T00:54:48.341Z,57.54
2018-07-02T00:55:51.795Z,57.41
2018-07-02T00:56:55.270Z,57.92
2018-07-02T00:57:58.728Z,57.98
2018-07-02T00:59:02.210Z,57.47
2018-07-02T01:00:17.150Z,57.58
2018-07-02T01:01:21.075Z,57.16
2018-07-02T01:02:24.508Z,57.65
2018-07-02T01:03:27.980Z,57.21
2018-07-02T01:04:31.508Z,57.55
2018-07-02T01:05:34.947Z,57.94
2018-07-02T01:06:38.407Z,58.08
2018-07-02T01:07:42.731Z,57.58
2018-07-02T01:08:46.184Z,57.70
2018-07-02T01:09:49.654Z,57.57
2018-07-02T01:10:53.105Z,57.74
2018-07-02T01:11:56.528Z,57.66
2018-07-02T01:12:59.987Z,57.54
2018-07-02T01:14:03.456Z,57.92
2018-07-02T01:15:07.451Z,57.70
2018-07-02T01:16:10.871Z,57.49
2018-07-02T01:17:15.133Z,57.73
2018-07-02T01:18:18.610Z,57.90
2018-07-02T01:19:22.053Z,57.85
2018-07-02T01:20:25.477Z,58.46
2018-07-02T01:21:28.947Z,57.71
2018-07-02T01:22:32.393Z,58.14
2018-07-02T01:23:35.819Z,57.95
2018-07-02T01:24:39.257Z,58.38
2018-07-02T01:25:42.714Z,58.52
2018-07-02T01:26:46.161Z,58.34
2018-07-02T01:27:49.590Z,58.04
2018-07-02T01:28:53.237Z,57.85
2018-07-02T01:29:56.664Z,57.40
2018-07-02T01:31:00.156Z,57.79
2018-07-02T01:32:03.600Z,58.57
2018-07-02T01:33:07.156Z,58.30
2018-07-02T01:34:10.598Z,58.36
2018-07-02T01:35:14.047Z,57.91
2018-07-02T01:36:17.473Z,57.70
2018-07-02T01:37:20.883Z,58.32
2018-07-02T01:38:24.334Z,57.84
2018-07-02T01:39:27.764Z,58.15
2018-07-02T01:40:31.203Z,58.50
2018-07-02T01:41:34.659Z,58.11
2018-07-02T01:42:38.143Z,57.76
2018-07-02T01:43:41.611Z,57.72
2018-07-02T01:44:45.034Z,56.08
2018-07-02T01:45:48.489Z,56.92
2018-07-02T01:46:51.978Z,56.21
2018-07-02T01:47:55.440Z,56.68
2018-07-02T01:48:58.933Z,55.73
2018-07-02T01:50:02.353Z,56.91
2018-07-02T01:51:05.823Z,56.42
2018-07-02T01:52:09.367Z,56.37
2018-07-02T01:53:12.808Z,56.19
2018-07-02T01:54:16.214Z,56.29
2018-07-02T01:55:19.602Z,56.01
2018-07-02T01:56:23.043Z,56.02
2018-07-02T01:57:26.491Z,54.98
2018-07-02T01:58:29.911Z,55.39
2018-07-02T01:59:33.321Z,55.14
2018-07-02T02:00:36.730Z,55.00
2018-07-02T02:01:40.146Z,55.05
2018-07-02T02:02:43.570Z,55.13
2018-07-02T02:03:47.026Z,54.89
2018-07-02T02:04:50.422Z,54.71
2018-07-02T02:05:53.900Z,54.43
2018-07-02T02:06:57.332Z,54.66
2018-07-02T02:08:00.776Z,54.56
2018-07-02T02:09:06.165Z,54.09
2018-07-02T02:10:09.878Z,54.45
2018-07-02T02:11:13.321Z,53.88
2018-07-02T02:12:16.777Z,53.79
2018-07-02T02:13:20.230Z,54.26
2018-07-02T02:14:23.679Z,53.65
2018-07-02T02:15:27.136Z,53.19
2018-07-02T02:16:30.594Z,54.11
2018-07-02T02:17:34.141Z,53.95
2018-07-02T02:18:37.596Z,53.87
2018-07-02T02:19:41.009Z,53.75
2018-07-02T02:20:44.452Z,53.49
2018-07-02T02:21:47.920Z,53.30
2018-07-02T02:22:51.408Z,53.08
2018-07-02T02:23:54.790Z,53.15
2018-07-02T02:24:58.222Z,53.08
2018-07-02T02:26:01.651Z,52.55
2018-07-02T02:27:05.430Z,52.63
2018-07-02T02:28:08.954Z,52.41
2018-07-02T02:29:12.365Z,52.75
2018-07-02T02:30:15.796Z,52.46
2018-07-02T02:31:19.266Z,52.43
2018-07-02T02:32:22.704Z,52.66
2018-07-02T02:33:26.262Z,52.44
2018-07-02T02:34:29.699Z,51.97
2018-07-02T02:35:33.152Z,52.20
2018-07-02T02:36:36.623Z,52.01
2018-07-02T02:37:40.095Z,51.79
2018-07-02T02:38:43.567Z,52.32
2018-07-02T02:39:47.034Z,52.20
2018-07-02T02:40:50.461Z,51.46
2018-07-02T02:41:53.948Z,51.48
2018-07-02T02:42:57.388Z,51.93
2018-07-02T02:44:00.850Z,52.31
2018-07-02T02:45:05.076Z,52.67
2018-07-02T02:46:08.816Z,52.35
2018-07-02T02:47:12.253Z,52.13
2018-07-02T02:48:15.662Z,51.93
2018-07-02T02:49:19.185Z,52.48
2018-07-02T02:50:22.683Z,51.72
2018-07-02T02:51:26.289Z,51.65
2018-07-02T02:52:29.778Z,51.45
2018-07-02T02:53:33.196Z,51.71
2018-07-02T02:54:36.620Z,51.84
2018-07-02T02:55:40.049Z,52.01
2018-07-02T02:56:43.474Z,51.40
2018-07-02T02:57:46.894Z,51.23
2018-07-02T02:58:50.349Z,51.74
2018-07-02T02:59:53.790Z,52.04
2018-07-02T03:00:57.261Z,51.42
2018-07-02T03:02:00.674Z,51.95
2018-07-02T03:03:04.451Z,51.57
2018-07-02T03:04:08.018Z,51.31
2018-07-02T03:05:11.949Z,51.77
2018-07-02T03:06:15.821Z,51.27
2018-07-02T03:07:19.611Z,51.13
2018-07-02T03:08:23.119Z,51.21
2018-07-02T03:09:26.572Z,51.54
2018-07-02T03:10:30.073Z,51.74
2018-07-02T03:11:33.484Z,51.96
2018-07-02T03:12:36.916Z,51.41
2018-07-02T03:13:40.354Z,51.77
2018-07-02T03:14:43.766Z,51.73
2018-07-02T03:15:47.202Z,51.89
2018-07-02T03:16:50.811Z,51.87
2018-07-02T03:17:54.257Z,52.17
2018-07-02T03:18:57.767Z,52.26
2018-07-02T03:20:01.212Z,51.85
2018-07-02T03:21:04.667Z,51.92
2018-07-02T03:22:08.469Z,52.20
2018-07-02T03:23:11.890Z,52.07
2018-07-02T03:24:15.345Z,51.92
2018-07-02T03:25:18.775Z,52.55
2018-07-02T03:26:22.219Z,52.24
2018-07-02T03:27:25.689Z,52.07
2018-07-02T03:28:29.138Z,52.35
2018-07-02T03:29:32.586Z,52.28
2018-07-02T03:30:36.042Z,52.60
2018-07-02T03:31:39.480Z,52.71
2018-07-02T03:32:42.879Z,52.46
2018-07-02T03:33:46.328Z,52.49
2018-07-02T03:34:49.941Z,52.46
2018-07-02T03:35:53.400Z,52.45
2018-07-02T03:36:56.834Z,52.30
2018-07-02T03:38:00.596Z,52.21
2018-07-02T03:39:06.369Z,52.65
2018-07-02T03:40:09.838Z,52.40
2018-07-02T03:41:13.305Z,52.71
2018-07-02T03:42:16.750Z,52.32
2018-07-02T03:43:20.214Z,52.26
2018-07-02T03:44:23.660Z,52.17
2018-07-02T03:45:27.148Z,51.80
2018-07-02T03:46:30.657Z,52.02
2018-07-02T03:47:34.056Z,52.62
2018-07-02T03:48:37.488Z,52.12
2018-07-02T03:49:41.045Z,52.02
2018-07-02T03:50:44.583Z,52.08
2018-07-02T03:51:48.243Z,52.07
2018-07-02T03:52:51.676Z,52.08
2018-07-02T03:53:55.188Z,51.85
2018-07-02T03:55:05.137Z,51.78
2018-07-02T03:56:08.725Z,51.77
2018-07-02T03:57:12.642Z,51.90
2018-07-02T03:58:16.084Z,51.83
2018-07-02T03:59:20.221Z,51.32
2018-07-02T04:00:23.676Z,52.00
2018-07-02T04:01:27.143Z,51.61
2018-07-02T04:02:30.591Z,51.34
2018-07-02T04:03:34.068Z,51.35
2018-07-02T04:04:37.536Z,51.42
2018-07-02T04:05:40.970Z,50.81
2018-07-02T04:06:44.379Z,50.72
2018-07-02T04:07:47.895Z,51.17
2018-07-02T04:08:51.336Z,51.17
2018-07-02T04:09:54.842Z,51.26
2018-07-02T04:10:59.202Z,51.07
2018-07-02T04:12:02.712Z,50.85
2018-07-02T04:13:06.165Z,51.05
2018-07-02T04:14:09.828Z,50.79
2018-07-02T04:15:13.424Z,51.17
2018-07-02T04:16:16.881Z,50.79
2018-07-02T04:17:20.312Z,51.01
2018-07-02T04:18:23.799Z,50.81
2018-07-02T04:19:27.279Z,50.83
2018-07-02T04:20:30.720Z,51.37
2018-07-02T04:21:34.224Z,50.83
2018-07-02T04:22:37.665Z,50.79
2018-07-02T04:23:41.081Z,50.67
2018-07-02T04:24:44.492Z,50.20
2018-07-02T04:25:47.972Z,50.33
2018-07-02T04:26:51.381Z,50.75
2018-07-02T04:27:54.831Z,50.46
2018-07-02T04:28:58.539Z,50.72
2018-07-02T04:30:02.066Z,50.46
2018-07-02T04:31:05.506Z,50.58
2018-07-02T04:32:08.925Z,50.62
2018-07-02T04:33:12.473Z,50.73
2018-07-02T04:34:15.909Z,50.63
2018-07-02T04:35:19.437Z,50.83
2018-07-02T04:36:22.971Z,50.58
2018-07-02T04:37:26.455Z,50.43
2018-07-02T04:38:29.970Z,50.54
2018-07-02T04:39:33.485Z,50.76
2018-07-02T04:40:37.338Z,50.55
2018-07-02T04:41:40.756Z,50.78
2018-07-02T04:42:44.228Z,50.84
2018-07-02T04:43:47.750Z,50.71
2018-07-02T04:44:51.454Z,50.59
2018-07-02T04:45:54.894Z,50.26
2018-07-02T04:46:58.380Z,50.51
2018-07-02T04:48:01.931Z,50.99
2018-07-02T04:49:05.552Z,51.12
2018-07-02T04:50:08.993Z,50.80
2018-07-02T04:51:12.503Z,51.00
2018-07-02T04:52:15.876Z,51.26
2018-07-02T04:53:19.319Z,51.06
2018-07-02T04:54:22.827Z,51.02
2018-07-02T04:55:26.185Z,50.92
2018-07-02T04:56:29.660Z,50.91
2018-07-02T04:57:33.088Z,51.58
2018-07-02T04:58:36.572Z,51.36
2018-07-02T04:59:40.047Z,51.17
2018-07-02T05:00:43.457Z,51.69
2018-07-02T05:01:46.873Z,51.15
2018-07-02T05:02:50.440Z,51.39
2018-07-02T05:03:53.949Z,51.19
2018-07-02T05:04:57.322Z,51.37
2018-07-02T05:06:00.977Z,50.92
2018-07-02T05:07:04.396Z,51.05
2018-07-02T05:08:07.874Z,50.82
2018-07-02T05:09:11.352Z,51.36
2018-07-02T05:10:14.823Z,51.06
2018-07-02T05:11:18.214Z,50.56
2018-07-02T05:12:21.659Z,50.78
2018-07-02T05:13:25.050Z,50.66
2018-07-02T05:14:28.469Z,51.05
2018-07-02T05:15:31.890Z,50.91
2018-07-02T05:16:35.296Z,51.20
2018-07-02T05:17:38.852Z,50.94
2018-07-02T05:18:42.298Z,50.88
2018-07-02T05:19:45.697Z,50.68
2018-07-02T05:20:49.163Z,50.86
2018-07-02T05:21:52.581Z,50.88
2018-07-02T05:22:55.993Z,50.82
2018-07-02T05:23:59.424Z,51.00
2018-07-02T05:25:03.098Z,50.88
2018-07-02T05:26:06.485Z,50.86
2018-07-02T05:27:09.958Z,50.19
2018-07-02T05:28:13.363Z,50.77
2018-07-02T05:29:16.777Z,50.10
2018-07-02T05:30:20.190Z,50.41
2018-07-02T05:31:23.684Z,50.55
2018-07-02T05:32:27.130Z,50.65
2018-07-02T05:33:30.537Z,50.55
2018-07-02T05:34:33.924Z,50.62
2018-07-02T05:35:37.317Z,50.65
2018-07-02T05:36:40.736Z,50.65
2018-07-02T05:37:44.378Z,50.58
2018-07-02T05:38:47.797Z,50.78
2018-07-02T05:39:51.235Z,50.83
2018-07-02T05:40:54.994Z,50.69
2018-07-02T05:41:58.522Z,50.29
2018-07-02T05:43:02.152Z,50.64
2018-07-02T05:44:06.106Z,50.22
2018-07-02T05:45:09.540Z,50.51
2018-07-02T05:46:13.229Z,50.33
2018-07-02T05:47:16.824Z,49.89
2018-07-02T05:48:20.940Z,50.18
2018-07-02T05:49:24.483Z,50.27
2018-07-02T05:50:28.123Z,50.18
2018-07-02T05:51:31.596Z,47.28
2018-07-02T05:52:35.071Z,46.66
2018-07-02T05:53:38.503Z,45.38
2018-07-02T05:54:41.934Z,45.32
2018-07-02T05:55:45.346Z,45.30
2018-07-02T05:56:48.764Z,44.63
2018-07-02T05:57:52.287Z,45.37
2018-07-02T05:58:55.734Z,44.52
2018-07-02T05:59:59.214Z,44.43
2018-07-02T06:01:02.638Z,44.23
2018-07-02T06:02:06.056Z,43.98
2018-07-02T06:03:09.448Z,44.27
2018-07-02T06:04:13.022Z,44.46
2018-07-02T06:05:16.503Z,44.07
2018-07-02T06:06:20.190Z,44.49
2018-07-02T06:07:23.586Z,44.29
2018-07-02T06:08:27.012Z,43.87
2018-07-02T06:09:30.432Z,44.32
2018-07-02T06:10:33.832Z,43.44
2018-07-02T06:11:37.935Z,43.70
2018-07-02T06:12:41.325Z,43.71
2018-07-02T06:13:44.765Z,42.87
2018-07-02T06:14:48.135Z,43.03
2018-07-02T06:15:51.530Z,42.63
2018-07-02T06:16:54.968Z,42.30
2018-07-02T06:17:58.446Z,41.95
2018-07-02T06:19:01.922Z,42.49
2018-07-02T06:20:05.565Z,41.75
2018-07-02T06:21:10.485Z,41.67
2018-07-02T06:22:13.907Z,41.20
2018-07-02T06:23:17.303Z,41.34
2018-07-02T06:24:20.702Z,41.43
2018-07-02T06:25:24.074Z,41.08
2018-07-02T06:26:27.514Z,41.08
2018-07-02T06:27:31.001Z,41.20
2018-07-02T06:28:34.420Z,41.02
2018-07-02T06:29:37.825Z,40.61
2018-07-02T06:30:41.241Z,40.35
2018-07-02T06:31:44.644Z,40.40
2018-07-02T06:32:48.019Z,40.06
2018-07-02T06:33:51.841Z,40.28
2018-07-02T06:34:55.254Z,40.14
2018-07-02T06:35:58.810Z,40.02
2018-07-02T06:37:02.243Z,40.26
2018-07-02T06:38:06.032Z,39.99
2018-07-02T06:39:10.407Z,39.70
2018-07-02T06:40:13.824Z,39.58
2018-07-02T06:41:17.250Z,39.37
2018-07-02T06:42:20.784Z,38.96
2018-07-02T06:43:24.196Z,38.88
2018-07-02T06:44:29.121Z,38.77
2018-07-02T06:45:33.091Z,38.77
2018-07-02T06:46:36.503Z,38.53
2018-07-02T06:47:39.917Z,38.63
2018-07-02T06:48:43.336Z,38.46
2018-07-02T06:49:46.716Z,38.44
2018-07-02T06:50:50.194Z,38.75
2018-07-02T06:51:53.676Z,38.65
2018-07-02T06:52:57.163Z,38.34
2018-07-02T06:54:00.565Z,38.83
2018-07-02T06:55:04.057Z,38.56
2018-07-02T06:56:07.630Z,38.35
2018-07-02T06:57:11.048Z,38.09
2018-07-02T06:58:14.451Z,37.99
2018-07-02T06:59:17.916Z,38.36
2018-07-02T07:00:21.343Z,38.40
2018-07-02T07:01:24.779Z,38.33
2018-07-02T07:02:28.219Z,38.42
2018-07-02T07:03:31.593Z,38.21
2018-07-02T07:04:34.973Z,38.09
2018-07-02T07:05:38.374Z,38.34
2018-07-02T07:06:41.770Z,38.10
2018-07-02T07:07:45.165Z,38.35
2018-07-02T07:08:48.561Z,37.88
2018-07-02T07:09:51.992Z,38.16
2018-07-02T07:10:55.549Z,38.09
2018-07-02T07:11:58.972Z,38.40
2018-07-02T07:13:02.416Z,38.43
2018-07-02T07:14:06.250Z,38.43
2018-07-02T07:15:09.699Z,38.19
2018-07-02T07:16:13.458Z,38.54
2018-07-02T07:17:16.900Z,38.04
2018-07-02T07:18:20.386Z,38.04
2018-07-02T07:19:23.926Z,38.21
2018-07-02T07:20:27.342Z,38.19
2018-07-02T07:21:31.013Z,38.72
2018-07-02T07:22:34.488Z,38.45
2018-07-02T07:23:37.884Z,38.72
2018-07-02T07:24:41.286Z,38.85
2018-07-02T07:25:44.702Z,38.41
2018-07-02T07:26:48.172Z,38.73
2018-07-02T07:27:51.576Z,38.38
2018-07-02T07:28:55.000Z,37.85
2018-07-02T07:29:59.348Z,38.14
2018-07-02T07:31:02.818Z,38.62
2018-07-02T07:32:06.243Z,38.08
2018-07-02T07:33:09.649Z,37.96
2018-07-02T07:34:13.097Z,38.47
2018-07-02T07:35:16.494Z,38.63
2018-07-02T07:36:20.550Z,39.09
2018-07-02T07:37:23.980Z,39.19
2018-07-02T07:38:27.393Z,39.28
2018-07-02T07:39:32.529Z,39.53
2018-07-02T07:40:35.957Z,39.79
2018-07-02T07:41:39.390Z,39.55
2018-07-02T07:42:42.884Z,39.63
2018-07-02T07:43:46.316Z,39.60
2018-07-02T07:44:49.754Z,39.85
2018-07-02T07:45:53.188Z,39.65
2018-07-02T07:46:59.800Z,40.01
2018-07-02T07:48:03.266Z,40.04
2018-07-02T07:49:06.718Z,39.83
2018-07-02T07:50:10.132Z,39.78
2018-07-02T07:51:13.546Z,40.13
2018-07-02T07:52:17.067Z,40.32
2018-07-02T07:53:20.523Z,40.20
2018-07-02T07:54:23.991Z,40.62
2018-07-02T07:55:27.485Z,40.11
2018-07-02T07:56:32.026Z,40.80
2018-07-02T07:57:35.467Z,40.37
2018-07-02T07:58:38.912Z,40.73
2018-07-02T07:59:42.332Z,40.54
2018-07-02T08:00:45.703Z,40.32
2018-07-02T08:01:49.124Z,40.25
2018-07-02T08:02:52.568Z,40.21
2018-07-02T08:03:56.012Z,40.43
2018-07-02T08:04:59.437Z,40.31
2018-07-02T08:06:02.980Z,40.82
2018-07-02T08:07:06.634Z,40.88
2018-07-02T08:08:10.054Z,40.90
2018-07-02T08:09:14.175Z,41.10
2018-07-02T08:10:17.941Z,41.22
2018-07-02T08:11:21.598Z,41.30
2018-07-02T08:12:25.181Z,41.29
2018-07-02T08:13:28.765Z,41.37
2018-07-02T08:14:32.360Z,41.73
2018-07-02T08:15:35.896Z,41.75
2018-07-02T08:16:39.489Z,42.12
2018-07-02T08:17:43.253Z,42.06
2018-07-02T08:18:46.842Z,42.30
2018-07-02T08:19:50.399Z,42.29
2018-07-02T08:20:53.924Z,42.03
2018-07-02T08:21:57.338Z,42.41
2018-07-02T08:23:01.151Z,42.76
2018-07-02T08:24:04.604Z,42.37
2018-07-02T08:25:08.030Z,42.52
2018-07-02T08:26:11.518Z,42.55
2018-07-02T08:27:14.927Z,42.52
2018-07-02T08:28:18.426Z,42.67
2018-07-02T08:29:22.027Z,42.55
2018-07-02T08:30:25.725Z,42.43
2018-07-02T08:31:29.210Z,42.66
2018-07-02T08:32:32.710Z,42.54
2018-07-02T08:33:36.166Z,42.53
2018-07-02T08:34:39.568Z,42.65
2018-07-02T08:35:43.059Z,42.98
2018-07-02T08:36:46.460Z,43.15
2018-07-02T08:37:49.904Z,43.13
2018-07-02T08:38:53.336Z,43.14
2018-07-02T08:39:56.754Z,43.15
2018-07-02T08:41:00.201Z,42.79
2018-07-02T08:42:03.667Z,43.13
2018-07-02T08:43:07.118Z,43.12
2018-07-02T08:44:10.526Z,43.08
2018-07-02T08:45:13.927Z,42.97
2018-07-02T08:46:17.394Z,43.13
2018-07-02T08:47:20.923Z,43.29
2018-07-02T08:48:24.590Z,43.32
2018-07-02T08:49:27.982Z,43.31
2018-07-02T08:50:31.393Z,43.27
2018-07-02T08:51:34.886Z,43.27
2018-07-02T08:52:38.293Z,43.73
2018-07-02T08:53:41.690Z,43.40
2018-07-02T08:54:45.073Z,43.81
2018-07-02T08:55:48.490Z,43.55
2018-07-02T08:56:52.068Z,43.66
2018-07-02T08:57:55.507Z,43.51
2018-07-02T08:58:58.885Z,43.57
2018-07-02T09:00:02.391Z,43.41
2018-07-02T09:01:06.087Z,43.30
2018-07-02T09:02:09.488Z,43.31
2018-07-02T09:03:12.943Z,43.05
2018-07-02T09:04:16.391Z,43.27
2018-07-02T09:05:19.870Z,43.01
2018-07-02T09:06:23.282Z,43.18
2018-07-02T09:07:26.755Z,43.20
2018-07-02T09:08:30.279Z,43.18
2018-07-02T09:09:33.686Z,43.29
2018-07-02T09:10:37.108Z,43.45
2018-07-02T09:11:40.644Z,43.48
2018-07-02T09:12:44.073Z,43.74
2018-07-02T09:13:47.490Z,43.85
2018-07-02T09:14:50.899Z,43.92
2018-07-02T09:15:54.398Z,43.79
2018-07-02T09:16:57.886Z,43.81
2018-07-02T09:18:01.341Z,43.46
2018-07-02T09:19:04.971Z,42.47
2018-07-02T09:20:08.380Z,41.99
2018-07-02T09:21:11.778Z,42.07
2018-07-02T09:22:15.222Z,42.23
2018-07-02T09:23:18.658Z,42.74
2018-07-02T09:24:22.097Z,42.63
2018-07-02T09:25:25.495Z,43.24
2018-07-02T09:26:28.894Z,43.08
2018-07-02T09:27:32.305Z,43.36
2018-07-02T09:28:35.686Z,43.36
2018-07-02T09:29:39.117Z,43.42
2018-07-02T09:30:42.548Z,43.83
2018-07-02T09:31:45.937Z,43.67
2018-07-02T09:32:49.360Z,43.89
2018-07-02T09:33:52.760Z,44.02
2018-07-02T09:34:56.145Z,43.72
2018-07-02T09:35:59.564Z,43.87
2018-07-02T09:37:03.005Z,43.75
2018-07-02T09:38:06.475Z,44.08
2018-07-02T09:39:12.127Z,43.89
2018-07-02T09:40:15.485Z,44.07
2018-07-02T09:41:18.913Z,43.98
2018-07-02T09:42:22.334Z,44.07
2018-07-02T09:43:25.721Z,44.05
2018-07-02T09:44:29.315Z,44.16
2018-07-02T09:45:32.720Z,44.25
2018-07-02T09:46:36.590Z,44.44
2018-07-02T09:47:39.982Z,44.09
2018-07-02T09:48:43.384Z,44.20
2018-07-02T09:49:46.793Z,44.12
2018-07-02T09:50:50.218Z,44.01
2018-07-02T09:51:53.646Z,43.99
2018-07-02T09:52:57.037Z,43.51
2018-07-02T09:54:01.091Z,43.28
2018-07-02T09:55:04.499Z,42.66
2018-07-02T09:56:08.161Z,42.54
2018-07-02T09:57:11.620Z,42.37
2018-07-02T09:58:15.142Z,42.59
2018-07-02T09:59:18.580Z,42.93
2018-07-02T10:00:22.109Z,43.29
2018-07-02T10:01:25.508Z,43.74
2018-07-02T10:02:28.909Z,43.48
2018-07-02T10:03:32.404Z,43.66
2018-07-02T10:04:35.814Z,43.44
2018-07-02T10:05:39.433Z,43.82
2018-07-02T10:06:42.877Z,43.90
2018-07-02T10:07:46.249Z,43.93
2018-07-02T10:08:49.805Z,43.32
2018-07-02T10:09:53.126Z,43.00
2018-07-02T10:10:56.558Z,42.97
2018-07-02T10:11:59.971Z,42.76
2018-07-02T10:13:03.388Z,42.49
2018-07-02T10:14:06.860Z,42.14
2018-07-02T10:15:10.274Z,42.43
2018-07-02T10:16:15.414Z,42.11
2018-07-02T10:17:18.880Z,42.32
2018-07-02T10:18:22.534Z,42.37
2018-07-02T10:19:25.959Z,41.87
2018-07-02T10:20:29.494Z,41.89
2018-07-02T10:21:32.918Z,41.92
2018-07-02T10:22:36.346Z,41.96
2018-07-02T10:23:39.802Z,42.00
2018-07-02T10:24:43.202Z,42.01
2018-07-02T10:25:46.635Z,42.07
2018-07-02T10:26:50.066Z,41.92
2018-07-02T10:27:53.468Z,41.85
2018-07-02T10:28:56.857Z,41.84
2018-07-02T10:30:00.280Z,41.45
2018-07-02T10:31:03.792Z,41.54
2018-07-02T10:32:07.208Z,41.43
2018-07-02T10:33:10.613Z,41.56
2018-07-02T10:34:14.027Z,41.24
2018-07-02T10:35:17.459Z,41.15
2018-07-02T10:36:20.885Z,41.49
2018-07-02T10:37:24.296Z,41.69
2018-07-02T10:38:28.010Z,41.92
2018-07-02T10:39:31.391Z,42.10
2018-07-02T10:40:34.774Z,42.10
2018-07-02T10:41:38.634Z,42.17
2018-07-02T10:42:42.076Z,42.21
2018-07-02T10:43:45.500Z,42.12
2018-07-02T10:44:48.933Z,42.32
2018-07-02T10:45:52.336Z,42.01
2018-07-02T10:46:55.758Z,41.96
2018-07-02T10:47:59.256Z,41.68
2018-07-02T10:49:02.714Z,41.68
2018-07-02T10:50:06.132Z,41.63
2018-07-02T10:51:09.514Z,41.81
2018-07-02T10:52:12.944Z,41.70
2018-07-02T10:53:16.366Z,41.47
2018-07-02T10:54:19.788Z,42.01
2018-07-02T10:55:23.292Z,41.62
2018-07-02T10:56:26.786Z,41.75
2018-07-02T10:57:30.234Z,41.81
2018-07-02T10:58:33.684Z,41.71
2018-07-02T10:59:37.283Z,41.68
2018-07-02T11:00:40.876Z,41.32
2018-07-02T11:01:44.451Z,41.45
2018-07-02T11:02:47.957Z,41.19
2018-07-02T11:03:51.385Z,41.23
2018-07-02T11:04:54.874Z,40.92
2018-07-02T11:05:58.516Z,41.03
2018-07-02T11:07:02.015Z,40.95
2018-07-02T11:08:05.552Z,41.01
2018-07-02T11:09:09.566Z,40.99
2018-07-02T11:10:13.123Z,40.76
2018-07-02T11:11:16.603Z,40.76
2018-07-02T11:12:19.970Z,40.92
2018-07-02T11:13:23.430Z,40.66
2018-07-02T11:14:26.839Z,40.45
2018-07-02T11:15:30.261Z,40.50
2018-07-02T11:16:34.304Z,40.47
2018-07-02T11:17:37.851Z,40.29
2018-07-02T11:18:41.327Z,40.28
2018-07-02T11:19:44.789Z,40.46
2018-07-02T11:20:48.479Z,40.29
2018-07-02T11:21:51.949Z,40.48
2018-07-02T11:22:55.375Z,40.56
2018-07-02T11:23:58.793Z,40.50
2018-07-02T11:25:02.427Z,40.61
2018-07-02T11:26:05.833Z,40.73
2018-07-02T11:27:09.256Z,40.70
2018-07-02T11:28:13.200Z,40.89
2018-07-02T11:29:16.757Z,40.83
2018-07-02T11:30:20.241Z,41.15
2018-07-02T11:31:24.327Z,40.84
2018-07-02T11:32:27.741Z,41.01
2018-07-02T11:33:31.205Z,40.77
2018-07-02T11:34:34.774Z,40.94
2018-07-02T11:35:38.162Z,41.24
2018-07-02T11:36:42.189Z,41.11
2018-07-02T11:37:45.577Z,41.10
2018-07-02T11:38:49.009Z,41.14
2018-07-02T11:39:52.457Z,41.17
2018-07-02T11:40:56.014Z,41.16
2018-07-02T11:41:59.779Z,40.99
2018-07-02T11:43:04.577Z,41.26
2018-07-02T11:44:08.235Z,41.29
2018-07-02T11:45:11.617Z,41.11
2018-07-02T11:46:15.013Z,41.42
2018-07-02T11:47:18.443Z,41.34
2018-07-02T11:48:21.912Z,41.27
2018-07-02T11:49:25.789Z,41.64
2018-07-02T11:50:29.442Z,41.49
2018-07-02T11:51:32.908Z,41.44
2018-07-02T11:52:36.369Z,41.30
2018-07-02T11:53:39.811Z,41.61
2018-07-02T11:54:43.207Z,41.48
2018-07-02T11:55:47.323Z,41.47
2018-07-02T11:56:50.892Z,41.55
2018-07-02T11:57:54.291Z,41.60
2018-07-02T11:58:57.936Z,41.65
2018-07-02T12:00:01.337Z,41.54
2018-07-02T12:01:04.776Z,41.77
2018-07-02T12:02:08.199Z,41.58
2018-07-02T12:03:12.266Z,41.68
2018-07-02T12:04:16.041Z,41.77
2018-07-02T12:05:20.434Z,41.77
2018-07-02T12:06:23.862Z,41.74
2018-07-02T12:07:27.278Z,41.61
2018-07-02T12:08:30.935Z,41.92
2018-07-02T12:09:34.354Z,41.90
2018-07-02T12:10:38.394Z,41.91
2018-07-02T12:11:42.184Z,41.77
2018-07-02T12:12:45.607Z,41.91
2018-07-02T12:13:49.260Z,41.84
2018-07-02T12:14:52.676Z,42.03
2018-07-02T12:15:56.074Z,42.16
2018-07-02T12:16:59.543Z,42.09
2018-07-02T12:18:03.377Z,42.02
2018-07-02T12:19:06.852Z,41.97
2018-07-02T12:20:10.359Z,41.87
2018-07-02T12:21:13.796Z,41.77
2018-07-02T12:22:17.221Z,41.63
2018-07-02T12:23:20.598Z,41.56
2018-07-02T12:24:24.080Z,41.47
2018-07-02T12:25:27.493Z,41.61
2018-07-02T12:26:30.949Z,41.77
2018-07-02T12:27:34.372Z,41.83
2018-07-02T12:28:37.870Z,41.69
2018-07-02T12:29:41.295Z,41.67
2018-07-02T12:30:44.683Z,41.52
2018-07-02T12:31:48.973Z,41.71
2018-07-02T12:32:52.372Z,41.61
2018-07-02T12:33:55.783Z,41.75
2018-07-02T12:34:59.242Z,41.78
2018-07-02T12:36:02.753Z,41.90
2018-07-02T12:37:06.178Z,41.90
2018-07-02T12:38:09.622Z,41.55
2018-07-02T12:39:13.987Z,41.62
2018-07-02T12:40:17.999Z,41.50
2018-07-02T12:41:22.040Z,41.50
2018-07-02T12:42:26.173Z,41.53
2018-07-02T12:43:29.921Z,41.21
2018-07-02T12:44:33.349Z,41.31
2018-07-02T12:45:37.846Z,41.52
2018-07-02T12:46:42.003Z,41.64
2018-07-02T12:47:45.750Z,41.65
2018-07-02T12:48:50.018Z,41.35
2018-07-02T12:49:53.630Z,41.43
2018-07-02T12:50:57.853Z,41.25
2018-07-02T12:52:01.234Z,41.46
2018-07-02T12:53:06.950Z,41.47
2018-07-02T12:54:10.440Z,41.43
2018-07-02T12:55:13.968Z,41.52
2018-07-02T12:56:17.496Z,41.22
2018-07-02T12:57:20.927Z,40.90
2018-07-02T12:58:24.354Z,40.66
2018-07-02T12:59:27.804Z,40.84
2018-07-02T13:00:31.244Z,40.85
2018-07-02T13:01:34.650Z,40.83
2018-07-02T13:02:38.081Z,41.01
2018-07-02T13:03:41.527Z,41.07
2018-07-02T13:04:44.979Z,40.95
2018-07-02T13:05:48.370Z,41.14
2018-07-02T13:06:51.805Z,41.06
2018-07-02T13:07:55.433Z,41.41
2018-07-02T13:08:59.142Z,41.38
2018-07-02T13:10:02.990Z,41.18
2018-07-02T13:11:06.460Z,41.22
2018-07-02T13:12:09.861Z,41.20
2018-07-02T13:13:13.305Z,41.23
2018-07-02T13:14:16.811Z,41.53
2018-07-02T13:15:20.279Z,41.55
2018-07-02T13:16:23.775Z,41.38
2018-07-02T13:17:27.333Z,41.47
2018-07-02T13:18:30.714Z,41.10
2018-07-02T13:19:34.170Z,41.29
2018-07-02T13:20:37.601Z,41.45
2018-07-02T13:21:41.023Z,41.21
2018-07-02T13:22:44.473Z,41.40
2018-07-02T13:23:47.877Z,41.37
2018-07-02T13:24:52.180Z,41.51
2018-07-02T13:25:56.459Z,41.46
2018-07-02T13:26:59.994Z,41.43
2018-07-02T13:28:03.407Z,41.63
2018-07-02T13:29:06.812Z,41.60
2018-07-02T13:30:10.438Z,41.80
2018-07-02T13:31:13.880Z,41.96
2018-07-02T13:32:17.304Z,41.90
2018-07-02T13:33:20.717Z,42.04
2018-07-02T13:34:24.138Z,41.84
2018-07-02T13:35:27.633Z,41.64
2018-07-02T13:36:31.171Z,41.25
2018-07-02T13:37:34.584Z,41.16
2018-07-02T13:38:38.001Z,41.25